Terminal Aerodrome Forecast
Issued by NWS Des Moines, IA

Home | Current Version | Previous Version | Text Only | Print | Product List | Glossary On
Versions: 1 2 3 4 5 6 7 8 9 10 11 12 13 14 15 16 17 18 19 20 21 22 23 24 25 26 27 28 29 30 31 32 33 34 35 36 37 38 39
000
FTUS43 KDMX 111733
TAFDSM
TAF
KDSM 111733Z 1118/1218 15005KT P6SM BKN035
     FM112300 15005KT 2SM -SN BR SCT007 OVC015
     FM120100 14006KT 1SM -SN BR BKN010
     FM120500 16007KT 6SM -SN BKN018
     FM120800 29009KT P6SM BKN025
     FM121500 33015G23KT P6SM SCT030=

USA.gov is the U.S. government's official web portal to all federal, state and local government web resources and services.